sensor_id;sensor_type;location;lat;lon;timestamp;temperature;humidity
24224;DHT22;12359;49.716;9.212;2023-05-10T00:01:38;15.10;97.10
24224;DHT22;12359;49.716;9.212;2023-05-10T00:04:03;15.10;98.50
24224;DHT22;12359;49.716;9.212;2023-05-10T00:06:29;15.10;98.90
24224;DHT22;12359;49.716;9.212;2023-05-10T00:08:55;15.10;99.30
24224;DHT22;12359;49.716;9.212;2023-05-10T00:11:21;15.20;99.90
24224;DHT22;12359;49.716;9.212;2023-05-10T00:13:47;15.20;99.90
24224;DHT22;12359;49.716;9.212;2023-05-10T00:16:13;15.30;99.80
24224;DHT22;12359;49.716;9.212;2023-05-10T00:18:39;15.30;98.60
24224;DHT22;12359;49.716;9.212;2023-05-10T00:21:05;15.20;97.80
24224;DHT22;12359;49.716;9.212;2023-05-10T00:23:31;15.30;97.90
24224;DHT22;12359;49.716;9.212;2023-05-10T00:25:57;15.30;97.20
24224;DHT22;12359;49.716;9.212;2023-05-10T00:28:23;15.30;97.20
24224;DHT22;12359;49.716;9.212;2023-05-10T00:30:48;15.30;96.90
24224;DHT22;12359;49.716;9.212;2023-05-10T00:33:14;15.30;95.70
24224;DHT22;12359;49.716;9.212;2023-05-10T00:35:40;15.20;94.80
24224;DHT22;12359;49.716;9.212;2023-05-10T00:38:05;15.30;95.10
24224;DHT22;12359;49.716;9.212;2023-05-10T00:40:31;15.20;93.80
24224;DHT22;12359;49.716;9.212;2023-05-10T00:42:57;15.20;94.00
24224;DHT22;12359;49.716;9.212;2023-05-10T00:45:24;15.20;94.50
24224;DHT22;12359;49.716;9.212;2023-05-10T00:47:51;15.10;91.00
24224;DHT22;12359;49.716;9.212;2023-05-10T00:50:21;15.10;90.40
24224;DHT22;12359;49.716;9.212;2023-05-10T00:52:47;15.10;91.50
24224;DHT22;12359;49.716;9.212;2023-05-10T00:55:12;15.10;91.00
24224;DHT22;12359;49.716;9.212;2023-05-10T00:57:38;15.10;91.30
24224;DHT22;12359;49.716;9.212;2023-05-10T01:00:05;15.00;90.70
24224;DHT22;12359;49.716;9.212;2023-05-10T01:02:32;15.00;90.70
24224;DHT22;12359;49.716;9.212;2023-05-10T01:04:59;14.90;91.60
24224;DHT22;12359;49.716;9.212;2023-05-10T01:07:25;14.90;91.70
24224;DHT22;12359;49.716;9.212;2023-05-10T01:09:51;14.90;91.60
24224;DHT22;12359;49.716;9.212;2023-05-10T01:12:16;14.90;88.30
24224;DHT22;12359;49.716;9.212;2023-05-10T01:14:42;14.80;87.00
24224;DHT22;12359;49.716;9.212;2023-05-10T01:17:08;14.80;89.60
24224;DHT22;12359;49.716;9.212;2023-05-10T01:19:36;14.80;90.10
24224;DHT22;12359;49.716;9.212;2023-05-10T01:25:20;14.70;90.70
24224;DHT22;12359;49.716;9.212;2023-05-10T01:27:53;14.70;91.50
24224;DHT22;12359;49.716;9.212;2023-05-10T01:41:31;14.50;91.10
24224;DHT22;12359;49.716;9.212;2023-05-10T01:46:37;14.50;91.70
24224;DHT22;12359;49.716;9.212;2023-05-10T01:49:09;14.50;91.70
24224;DHT22;12359;49.716;9.212;2023-05-10T01:51:47;14.50;91.20
24224;DHT22;12359;49.716;9.212;2023-05-10T01:54:17;14.40;90.70
24224;DHT22;12359;49.716;9.212;2023-05-10T01:56:47;14.40;92.30
24224;DHT22;12359;49.716;9.212;2023-05-10T01:59:18;14.40;93.00
24224;DHT22;12359;49.716;9.212;2023-05-10T02:01:46;14.40;93.60
24224;DHT22;12359;49.716;9.212;2023-05-10T02:04:16;14.40;93.10
24224;DHT22;12359;49.716;9.212;2023-05-10T02:06:43;14.30;92.00
24224;DHT22;12359;49.716;9.212;2023-05-10T02:09:10;14.30;91.40
24224;DHT22;12359;49.716;9.212;2023-05-10T02:11:38;14.30;91.60
24224;DHT22;12359;49.716;9.212;2023-05-10T02:14:07;14.20;92.00
24224;DHT22;12359;49.716;9.212;2023-05-10T02:16:35;14.20;92.10
24224;DHT22;12359;49.716;9.212;2023-05-10T02:19:02;14.20;92.90
24224;DHT22;12359;49.716;9.212;2023-05-10T02:21:29;14.30;92.70
24224;DHT22;12359;49.716;9.212;2023-05-10T02:23:57;14.20;92.90
24224;DHT22;12359;49.716;9.212;2023-05-10T02:26:24;14.20;92.00
24224;DHT22;12359;49.716;9.212;2023-05-10T02:28:51;14.20;92.60
24224;DHT22;12359;49.716;9.212;2023-05-10T02:31:19;14.20;92.80
24224;DHT22;12359;49.716;9.212;2023-05-10T02:33:46;14.20;93.40
24224;DHT22;12359;49.716;9.212;2023-05-10T02:36:13;14.20;93.40
24224;DHT22;12359;49.716;9.212;2023-05-10T02:38:41;14.20;93.30
24224;DHT22;12359;49.716;9.212;2023-05-10T02:41:08;14.20;93.30
24224;DHT22;12359;49.716;9.212;2023-05-10T02:43:35;14.20;94.10
24224;DHT22;12359;49.716;9.212;2023-05-10T02:46:01;14.10;93.30
24224;DHT22;12359;49.716;9.212;2023-05-10T02:48:27;14.10;92.80
24224;DHT22;12359;49.716;9.212;2023-05-10T02:50:55;14.00;93.30
24224;DHT22;12359;49.716;9.212;2023-05-10T02:53:25;13.90;94.40
24224;DHT22;12359;49.716;9.212;2023-05-10T02:55:59;14.00;94.70
24224;DHT22;12359;49.716;9.212;2023-05-10T02:58:25;13.90;95.10
24224;DHT22;12359;49.716;9.212;2023-05-10T03:00:52;13.90;94.90
24224;DHT22;12359;49.716;9.212;2023-05-10T03:03:17;13.90;94.90
24224;DHT22;12359;49.716;9.212;2023-05-10T03:05:43;13.90;94.90
24224;DHT22;12359;49.716;9.212;2023-05-10T03:08:09;13.90;94.40
24224;DHT22;12359;49.716;9.212;2023-05-10T03:11:14;13.90;94.70
24224;DHT22;12359;49.716;9.212;2023-05-10T03:14:13;13.90;95.00
24224;DHT22;12359;49.716;9.212;2023-05-10T03:16:46;13.90;96.10
24224;DHT22;12359;49.716;9.212;2023-05-10T03:19:30;13.90;95.70
24224;DHT22;12359;49.716;9.212;2023-05-10T03:21:59;14.00;96.10
24224;DHT22;12359;49.716;9.212;2023-05-10T03:24:27;13.90;95.80
24224;DHT22;12359;49.716;9.212;2023-05-10T03:26:56;13.90;96.20
24224;DHT22;12359;49.716;9.212;2023-05-10T03:29:26;13.90;95.60
24224;DHT22;12359;49.716;9.212;2023-05-10T03:31:53;13.90;96.40
24224;DHT22;12359;49.716;9.212;2023-05-10T03:34:24;13.90;95.20
24224;DHT22;12359;49.716;9.212;2023-05-10T03:36:49;13.90;95.80
24224;DHT22;12359;49.716;9.212;2023-05-10T03:39:15;13.90;95.80
24224;DHT22;12359;49.716;9.212;2023-05-10T03:41:41;13.90;95.40
24224;DHT22;12359;49.716;9.212;2023-05-10T03:44:06;13.90;95.90
24224;DHT22;12359;49.716;9.212;2023-05-10T03:46:32;13.80;95.40
24224;DHT22;12359;49.716;9.212;2023-05-10T03:48:58;13.80;95.90
24224;DHT22;12359;49.716;9.212;2023-05-10T03:51:24;13.90;95.50
24224;DHT22;12359;49.716;9.212;2023-05-10T03:53:56;13.80;95.20
24224;DHT22;12359;49.716;9.212;2023-05-10T03:56:22;13.80;95.90
24224;DHT22;12359;49.716;9.212;2023-05-10T03:58:47;13.80;95.30
24224;DHT22;12359;49.716;9.212;2023-05-10T04:01:13;13.80;94.50
24224;DHT22;12359;49.716;9.212;2023-05-10T04:03:39;13.70;91.80
24224;DHT22;12359;49.716;9.212;2023-05-10T04:06:05;13.80;92.80
24224;DHT22;12359;49.716;9.212;2023-05-10T04:08:31;13.90;93.30
24224;DHT22;12359;49.716;9.212;2023-05-10T04:11:10;13.90;93.80
24224;DHT22;12359;49.716;9.212;2023-05-10T04:13:37;13.90;95.00
24224;DHT22;12359;49.716;9.212;2023-05-10T04:16:03;13.90;95.30
24224;DHT22;12359;49.716;9.212;2023-05-10T04:18:30;13.90;94.50
24224;DHT22;12359;49.716;9.212;2023-05-10T04:20:55;13.90;94.90
24224;DHT22;12359;49.716;9.212;2023-05-10T04:23:21;13.90;95.00
24224;DHT22;12359;49.716;9.212;2023-05-10T04:25:47;14.00;93.90
24224;DHT22;12359;49.716;9.212;2023-05-10T04:28:12;14.00;94.50
24224;DHT22;12359;49.716;9.212;2023-05-10T04:30:38;14.00;94.50
24224;DHT22;12359;49.716;9.212;2023-05-10T04:33:04;14.10;94.60
24224;DHT22;12359;49.716;9.212;2023-05-10T04:35:30;14.10;94.30
24224;DHT22;12359;49.716;9.212;2023-05-10T04:37:55;14.00;93.90
24224;DHT22;12359;49.716;9.212;2023-05-10T04:40:21;14.10;94.90
24224;DHT22;12359;49.716;9.212;2023-05-10T04:42:47;14.10;94.70
24224;DHT22;12359;49.716;9.212;2023-05-10T04:45:12;14.10;94.40
24224;DHT22;12359;49.716;9.212;2023-05-10T04:47:40;14.10;92.70
24224;DHT22;12359;49.716;9.212;2023-05-10T04:50:06;14.10;93.20
24224;DHT22;12359;49.716;9.212;2023-05-10T04:52:32;14.10;92.40
24224;DHT22;12359;49.716;9.212;2023-05-10T04:54:58;14.20;93.30
24224;DHT22;12359;49.716;9.212;2023-05-10T04:57:24;14.20;93.80
24224;DHT22;12359;49.716;9.212;2023-05-10T04:59:50;14.20;94.00
24224;DHT22;12359;49.716;9.212;2023-05-10T05:02:15;14.20;94.00
24224;DHT22;12359;49.716;9.212;2023-05-10T05:04:41;14.20;93.90
24224;DHT22;12359;49.716;9.212;2023-05-10T05:07:07;14.20;92.70
24224;DHT22;12359;49.716;9.212;2023-05-10T05:09:32;14.20;92.70
24224;DHT22;12359;49.716;9.212;2023-05-10T05:11:58;14.20;93.30
24224;DHT22;12359;49.716;9.212;2023-05-10T05:14:24;14.20;93.70
24224;DHT22;12359;49.716;9.212;2023-05-10T05:16:53;14.20;91.80
24224;DHT22;12359;49.716;9.212;2023-05-10T05:19:19;14.20;90.50
24224;DHT22;12359;49.716;9.212;2023-05-10T05:21:44;14.20;90.20
24224;DHT22;12359;49.716;9.212;2023-05-10T05:24:10;14.20;88.20
24224;DHT22;12359;49.716;9.212;2023-05-10T05:26:38;14.20;85.70
24224;DHT22;12359;49.716;9.212;2023-05-10T05:29:03;14.20;89.60
24224;DHT22;12359;49.716;9.212;2023-05-10T05:31:29;14.30;90.00
24224;DHT22;12359;49.716;9.212;2023-05-10T05:33:55;14.30;89.40
24224;DHT22;12359;49.716;9.212;2023-05-10T05:36:21;14.30;87.20
24224;DHT22;12359;49.716;9.212;2023-05-10T05:38:47;14.40;87.50
24224;DHT22;12359;49.716;9.212;2023-05-10T05:41:13;14.40;84.40
24224;DHT22;12359;49.716;9.212;2023-05-10T05:43:39;14.50;84.50
24224;DHT22;12359;49.716;9.212;2023-05-10T05:46:04;14.40;83.40
24224;DHT22;12359;49.716;9.212;2023-05-10T05:48:31;14.40;76.60
24224;DHT22;12359;49.716;9.212;2023-05-10T05:50:57;14.40;75.50
24224;DHT22;12359;49.716;9.212;2023-05-10T05:53:23;14.40;76.60
24224;DHT22;12359;49.716;9.212;2023-05-10T05:55:56;14.50;79.10
24224;DHT22;12359;49.716;9.212;2023-05-10T05:58:23;14.50;76.70
24224;DHT22;12359;49.716;9.212;2023-05-10T06:00:49;14.50;68.70
24224;DHT22;12359;49.716;9.212;2023-05-10T06:03:15;14.60;72.70
24224;DHT22;12359;49.716;9.212;2023-05-10T06:05:41;14.70;71.00
24224;DHT22;12359;49.716;9.212;2023-05-10T06:08:07;14.70;76.10
24224;DHT22;12359;49.716;9.212;2023-05-10T06:10:33;14.80;70.80
24224;DHT22;12359;49.716;9.212;2023-05-10T06:12:58;14.90;68.80
24224;DHT22;12359;49.716;9.212;2023-05-10T06:15:24;15.00;73.50
24224;DHT22;12359;49.716;9.212;2023-05-10T06:17:50;15.10;70.90
24224;DHT22;12359;49.716;9.212;2023-05-10T06:20:16;15.10;69.40
24224;DHT22;12359;49.716;9.212;2023-05-10T06:22:42;15.20;60.00
24224;DHT22;12359;49.716;9.212;2023-05-10T06:25:08;15.20;57.90
24224;DHT22;12359;49.716;9.212;2023-05-10T06:27:34;15.40;57.50
24224;DHT22;12359;49.716;9.212;2023-05-10T06:30:00;15.40;59.50
24224;DHT22;12359;49.716;9.212;2023-05-10T06:32:25;15.50;52.80
24224;DHT22;12359;49.716;9.212;2023-05-10T06:34:51;15.60;48.60
24224;DHT22;12359;49.716;9.212;2023-05-10T06:37:17;15.60;44.40
24224;DHT22;12359;49.716;9.212;2023-05-10T06:39:43;15.70;25.50
24224;DHT22;12359;49.716;9.212;2023-05-10T06:42:09;15.80;21.70
24224;DHT22;12359;49.716;9.212;2023-05-10T06:44:34;16.00;24.20
24224;DHT22;12359;49.716;9.212;2023-05-10T06:47:02;16.10;23.70
24224;DHT22;12359;49.716;9.212;2023-05-10T06:49:28;16.00;4.60
24224;DHT22;12359;49.716;9.212;2023-05-10T06:51:55;16.20;12.40
24224;DHT22;12359;49.716;9.212;2023-05-10T06:54:21;16.20;1.00
24224;DHT22;12359;49.716;9.212;2023-05-10T06:56:47;16.40;1.00
24224;DHT22;12359;49.716;9.212;2023-05-10T06:59:12;16.60;1.00
24224;DHT22;12359;49.716;9.212;2023-05-10T07:01:39;16.70;1.00
24224;DHT22;12359;49.716;9.212;2023-05-10T07:04:05;17.00;1.00
24224;DHT22;12359;49.716;9.212;2023-05-10T07:06:30;17.30;1.00
24224;DHT22;12359;49.716;9.212;2023-05-10T07:08:56;17.60;1.00
24224;DHT22;12359;49.716;9.212;2023-05-10T07:11:22;17.80;1.00
24224;DHT22;12359;49.716;9.212;2023-05-10T07:13:48;17.80;99.90
24224;DHT22;12359;49.716;9.212;2023-05-10T07:16:13;18.30;99.90
24224;DHT22;12359;49.716;9.212;2023-05-10T07:18:39;18.40;99.90
24224;DHT22;12359;49.716;9.212;2023-05-10T07:21:05;18.30;99.90
24224;DHT22;12359;49.716;9.212;2023-05-10T07:23:30;18.30;99.90
24224;DHT22;12359;49.716;9.212;2023-05-10T07:25:57;18.20;99.90
24224;DHT22;12359;49.716;9.212;2023-05-10T07:28:23;18.10;99.90
24224;DHT22;12359;49.716;9.212;2023-05-10T07:30:49;18.00;99.90
24224;DHT22;12359;49.716;9.212;2023-05-10T07:33:15;17.80;99.90
24224;DHT22;12359;49.716;9.212;2023-05-10T07:35:42;17.80;99.90
24224;DHT22;12359;49.716;9.212;2023-05-10T07:38:07;17.60;1.00
24224;DHT22;12359;49.716;9.212;2023-05-10T07:40:33;17.70;1.00
24224;DHT22;12359;49.716;9.212;2023-05-10T07:42:59;17.50;1.00
24224;DHT22;12359;49.716;9.212;2023-05-10T07:45:28;17.40;1.00
24224;DHT22;12359;49.716;9.212;2023-05-10T07:47:54;17.40;1.00
24224;DHT22;12359;49.716;9.212;2023-05-10T07:50:19;17.30;1.00
24224;DHT22;12359;49.716;9.212;2023-05-10T07:52:47;17.30;1.00
24224;DHT22;12359;49.716;9.212;2023-05-10T07:55:13;17.30;1.00
24224;DHT22;12359;49.716;9.212;2023-05-10T07:57:38;17.40;1.00
24224;DHT22;12359;49.716;9.212;2023-05-10T08:00:05;17.30;1.00
24224;DHT22;12359;49.716;9.212;2023-05-10T08:02:31;17.30;1.00
24224;DHT22;12359;49.716;9.212;2023-05-10T08:04:57;17.30;1.00
24224;DHT22;12359;49.716;9.212;2023-05-10T08:07:24;17.20;1.00
24224;DHT22;12359;49.716;9.212;2023-05-10T08:09:50;17.30;1.00
24224;DHT22;12359;49.716;9.212;2023-05-10T08:12:16;17.50;1.00
24224;DHT22;12359;49.716;9.212;2023-05-10T08:14:42;17.70;99.90
24224;DHT22;12359;49.716;9.212;2023-05-10T08:17:08;17.80;99.90
24224;DHT22;12359;49.716;9.212;2023-05-10T08:19:34;17.90;99.90
24224;DHT22;12359;49.716;9.212;2023-05-10T08:22:00;18.10;99.90
24224;DHT22;12359;49.716;9.212;2023-05-10T08:24:25;18.30;99.90
24224;DHT22;12359;49.716;9.212;2023-05-10T08:26:51;18.60;99.90
24224;DHT22;12359;49.716;9.212;2023-05-10T08:29:17;18.80;99.90
24224;DHT22;12359;49.716;9.212;2023-05-10T08:31:43;19.00;1.00
24224;DHT22;12359;49.716;9.212;2023-05-10T08:34:08;19.00;1.00
24224;DHT22;12359;49.716;9.212;2023-05-10T08:36:34;19.10;99.90
24224;DHT22;12359;49.716;9.212;2023-05-10T08:39:00;19.20;99.90
24224;DHT22;12359;49.716;9.212;2023-05-10T08:41:26;19.30;1.00
24224;DHT22;12359;49.716;9.212;2023-05-10T08:43:53;19.30;17.20
24224;DHT22;12359;49.716;9.212;2023-05-10T08:46:21;19.50;1.00
24224;DHT22;12359;49.716;9.212;2023-05-10T08:48:49;19.60;99.90
24224;DHT22;12359;49.716;9.212;2023-05-10T08:51:20;19.90;99.90
24224;DHT22;12359;49.716;9.212;2023-05-10T08:53:47;20.00;1.00
24224;DHT22;12359;49.716;9.212;2023-05-10T08:56:13;19.90;23.90
24224;DHT22;12359;49.716;9.212;2023-05-10T08:58:41;19.80;99.90
24224;DHT22;12359;49.716;9.212;2023-05-10T09:01:07;19.90;99.90
24224;DHT22;12359;49.716;9.212;2023-05-10T09:03:35;19.90;99.90
24224;DHT22;12359;49.716;9.212;2023-05-10T09:06:01;19.60;99.90
24224;DHT22;12359;49.716;9.212;2023-05-10T09:08:27;19.50;1.00
24224;DHT22;12359;49.716;9.212;2023-05-10T09:10:56;19.20;1.00
24224;DHT22;12359;49.716;9.212;2023-05-10T09:13:23;19.10;99.90
24224;DHT22;12359;49.716;9.212;2023-05-10T09:15:49;18.90;99.90
24224;DHT22;12359;49.716;9.212;2023-05-10T09:18:15;18.90;99.90
24224;DHT22;12359;49.716;9.212;2023-05-10T09:20:41;18.80;1.00
24224;DHT22;12359;49.716;9.212;2023-05-10T09:23:06;18.70;99.90
24224;DHT22;12359;49.716;9.212;2023-05-10T09:25:32;18.70;99.90
24224;DHT22;12359;49.716;9.212;2023-05-10T09:27:59;18.70;1.00
24224;DHT22;12359;49.716;9.212;2023-05-10T09:30:29;18.70;1.00
24224;DHT22;12359;49.716;9.212;2023-05-10T09:32:56;18.80;1.00
24224;DHT22;12359;49.716;9.212;2023-05-10T09:35:27;19.10;1.00
24224;DHT22;12359;49.716;9.212;2023-05-10T09:37:54;19.30;99.90
24224;DHT22;12359;49.716;9.212;2023-05-10T09:40:24;19.60;1.00
24224;DHT22;12359;49.716;9.212;2023-05-10T09:43:11;19.60;1.00
24224;DHT22;12359;49.716;9.212;2023-05-10T09:45:36;19.70;53.70
24224;DHT22;12359;49.716;9.212;2023-05-10T09:48:03;19.70;99.90
24224;DHT22;12359;49.716;9.212;2023-05-10T09:50:30;19.80;99.90
24224;DHT22;12359;49.716;9.212;2023-05-10T09:52:59;19.70;99.90
24224;DHT22;12359;49.716;9.212;2023-05-10T09:58:06;19.90;99.90
24224;DHT22;12359;49.716;9.212;2023-05-10T10:00:37;20.10;99.90
24224;DHT22;12359;49.716;9.212;2023-05-10T10:03:03;20.40;99.90
24224;DHT22;12359;49.716;9.212;2023-05-10T10:07:57;21.10;1.00
24224;DHT22;12359;49.716;9.212;2023-05-10T10:10:27;21.10;1.00
24224;DHT22;12359;49.716;9.212;2023-05-10T10:12:54;21.20;71.40
24224;DHT22;12359;49.716;9.212;2023-05-10T10:15:23;21.30;1.00
24224;DHT22;12359;49.716;9.212;2023-05-10T10:17:50;21.80;1.00
24224;DHT22;12359;49.716;9.212;2023-05-10T10:20:17;22.70;99.90
24224;DHT22;12359;49.716;9.212;2023-05-10T10:22:43;23.10;99.90
24224;DHT22;12359;49.716;9.212;2023-05-10T10:25:11;23.50;99.90
24224;DHT22;12359;49.716;9.212;2023-05-10T10:30:46;24.20;1.00
24224;DHT22;12359;49.716;9.212;2023-05-10T10:35:59;23.90;99.90
24224;DHT22;12359;49.716;9.212;2023-05-10T10:38:25;23.30;99.90
24224;DHT22;12359;49.716;9.212;2023-05-10T10:41:10;22.80;99.90
24224;DHT22;12359;49.716;9.212;2023-05-10T10:43:36;22.50;99.90
24224;DHT22;12359;49.716;9.212;2023-05-10T10:46:18;22.50;99.90
24224;DHT22;12359;49.716;9.212;2023-05-10T10:49:08;22.60;99.90
24224;DHT22;12359;49.716;9.212;2023-05-10T10:51:40;22.50;99.90
24224;DHT22;12359;49.716;9.212;2023-05-10T10:54:29;22.20;99.90
24224;DHT22;12359;49.716;9.212;2023-05-10T10:57:11;21.70;1.00
24224;DHT22;12359;49.716;9.212;2023-05-10T10:59:44;21.10;1.00
24224;DHT22;12359;49.716;9.212;2023-05-10T11:02:31;20.80;99.90
24224;DHT22;12359;49.716;9.212;2023-05-10T11:04:56;20.50;1.00
24224;DHT22;12359;49.716;9.212;2023-05-10T11:07:22;20.20;99.90
24224;DHT22;12359;49.716;9.212;2023-05-10T11:09:48;20.10;99.90
24224;DHT22;12359;49.716;9.212;2023-05-10T11:12:14;19.80;99.90
24224;DHT22;12359;49.716;9.212;2023-05-10T11:14:40;19.60;1.00
24224;DHT22;12359;49.716;9.212;2023-05-10T11:17:26;19.50;1.00
24224;DHT22;12359;49.716;9.212;2023-05-10T11:20:09;19.50;1.00
24224;DHT22;12359;49.716;9.212;2023-05-10T11:22:51;19.50;99.90
24224;DHT22;12359;49.716;9.212;2023-05-10T11:25:17;19.40;99.90
24224;DHT22;12359;49.716;9.212;2023-05-10T11:27:43;19.40;99.90
24224;DHT22;12359;49.716;9.212;2023-05-10T11:30:10;19.40;99.90
24224;DHT22;12359;49.716;9.212;2023-05-10T11:32:40;19.40;99.90
24224;DHT22;12359;49.716;9.212;2023-05-10T11:35:11;19.20;1.00
24224;DHT22;12359;49.716;9.212;2023-05-10T11:37:38;19.20;99.90
24224;DHT22;12359;49.716;9.212;2023-05-10T11:40:08;19.30;99.90
24224;DHT22;12359;49.716;9.212;2023-05-10T11:42:37;19.30;1.00
24224;DHT22;12359;49.716;9.212;2023-05-10T11:45:03;19.40;1.00
24224;DHT22;12359;49.716;9.212;2023-05-10T11:47:28;19.20;31.70
24224;DHT22;12359;49.716;9.212;2023-05-10T11:49:54;19.10;99.90
24224;DHT22;12359;49.716;9.212;2023-05-10T11:52:20;19.00;99.90
24224;DHT22;12359;49.716;9.212;2023-05-10T11:54:51;18.90;99.90
24224;DHT22;12359;49.716;9.212;2023-05-10T11:57:21;18.90;99.90
24224;DHT22;12359;49.716;9.212;2023-05-10T11:59:54;18.80;1.00
24224;DHT22;12359;49.716;9.212;2023-05-10T12:02:21;18.70;96.70
24224;DHT22;12359;49.716;9.212;2023-05-10T12:04:47;18.60;99.90
24224;DHT22;12359;49.716;9.212;2023-05-10T12:07:13;18.60;99.90
24224;DHT22;12359;49.716;9.212;2023-05-10T12:12:38;18.50;99.90
24224;DHT22;12359;49.716;9.212;2023-05-10T12:15:05;18.40;99.90
24224;DHT22;12359;49.716;9.212;2023-05-10T12:17:32;18.40;44.50
24224;DHT22;12359;49.716;9.212;2023-05-10T12:20:20;18.40;1.00
24224;DHT22;12359;49.716;9.212;2023-05-10T12:23:05;18.30;99.90
24224;DHT22;12359;49.716;9.212;2023-05-10T12:25:32;18.30;99.90
24224;DHT22;12359;49.716;9.212;2023-05-10T12:27:59;18.20;34.50
24224;DHT22;12359;49.716;9.212;2023-05-10T12:30:30;18.10;1.00
24224;DHT22;12359;49.716;9.212;2023-05-10T12:33:10;18.10;22.90
24224;DHT22;12359;49.716;9.212;2023-05-10T12:35:50;18.20;99.90
24224;DHT22;12359;49.716;9.212;2023-05-10T12:40:52;17.80;1.00
24224;DHT22;12359;49.716;9.212;2023-05-10T12:43:18;17.80;99.90
24224;DHT22;12359;49.716;9.212;2023-05-10T12:45:43;17.60;99.90
24224;DHT22;12359;49.716;9.212;2023-05-10T12:48:13;17.50;1.00
24224;DHT22;12359;49.716;9.212;2023-05-10T12:50:39;17.40;99.90
24224;DHT22;12359;49.716;9.212;2023-05-10T12:53:04;17.40;99.90
24224;DHT22;12359;49.716;9.212;2023-05-10T12:55:30;17.50;99.90
24224;DHT22;12359;49.716;9.212;2023-05-10T12:57:56;17.70;99.90
24224;DHT22;12359;49.716;9.212;2023-05-10T13:00:21;17.70;99.90
24224;DHT22;12359;49.716;9.212;2023-05-10T13:02:47;17.80;99.90
24224;DHT22;12359;49.716;9.212;2023-05-10T13:05:13;18.00;1.00
24224;DHT22;12359;49.716;9.212;2023-05-10T13:07:39;18.10;99.90
24224;DHT22;12359;49.716;9.212;2023-05-10T13:10:06;18.30;77.10
24224;DHT22;12359;49.716;9.212;2023-05-10T13:12:32;18.50;4.90
24224;DHT22;12359;49.716;9.212;2023-05-10T13:14:57;18.70;1.00
24224;DHT22;12359;49.716;9.212;2023-05-10T13:17:25;18.90;99.90
24224;DHT22;12359;49.716;9.212;2023-05-10T13:19:50;19.00;1.00
24224;DHT22;12359;49.716;9.212;2023-05-10T13:22:16;19.30;99.90
24224;DHT22;12359;49.716;9.212;2023-05-10T13:24:42;19.40;99.90
24224;DHT22;12359;49.716;9.212;2023-05-10T13:27:07;19.50;1.00
24224;DHT22;12359;49.716;9.212;2023-05-10T13:29:33;19.60;99.90
24224;DHT22;12359;49.716;9.212;2023-05-10T13:31:59;19.70;99.90
24224;DHT22;12359;49.716;9.212;2023-05-10T13:34:24;19.80;5.20
24224;DHT22;12359;49.716;9.212;2023-05-10T13:36:50;19.90;36.50
24224;DHT22;12359;49.716;9.212;2023-05-10T13:39:16;20.10;56.30
24224;DHT22;12359;49.716;9.212;2023-05-10T13:41:42;20.20;99.90
24224;DHT22;12359;49.716;9.212;2023-05-10T13:44:07;20.30;1.00
24224;DHT22;12359;49.716;9.212;2023-05-10T13:46:33;20.20;99.90
24224;DHT22;12359;49.716;9.212;2023-05-10T13:48:59;20.30;99.90
24224;DHT22;12359;49.716;9.212;2023-05-10T13:51:24;20.20;99.90
24224;DHT22;12359;49.716;9.212;2023-05-10T13:53:50;20.20;99.90
24224;DHT22;12359;49.716;9.212;2023-05-10T13:56:16;20.10;99.90
24224;DHT22;12359;49.716;9.212;2023-05-10T13:58:42;20.00;99.90
24224;DHT22;12359;49.716;9.212;2023-05-10T14:01:08;19.70;99.90
24224;DHT22;12359;49.716;9.212;2023-05-10T14:03:33;19.60;1.00
24224;DHT22;12359;49.716;9.212;2023-05-10T14:05:59;19.50;1.00
24224;DHT22;12359;49.716;9.212;2023-05-10T14:08:25;19.40;24.00
24224;DHT22;12359;49.716;9.212;2023-05-10T14:10:52;19.50;87.70
24224;DHT22;12359;49.716;9.212;2023-05-10T14:13:18;19.40;99.90
24224;DHT22;12359;49.716;9.212;2023-05-10T14:15:43;19.40;99.90
24224;DHT22;12359;49.716;9.212;2023-05-10T14:18:09;19.40;1.00
24224;DHT22;12359;49.716;9.212;2023-05-10T14:20:35;19.50;99.90
24224;DHT22;12359;49.716;9.212;2023-05-10T14:23:00;19.50;99.90
24224;DHT22;12359;49.716;9.212;2023-05-10T14:25:26;19.60;1.00
24224;DHT22;12359;49.716;9.212;2023-05-10T14:27:52;19.60;99.90
24224;DHT22;12359;49.716;9.212;2023-05-10T14:30:20;19.70;99.90
24224;DHT22;12359;49.716;9.212;2023-05-10T14:32:46;19.70;99.90
24224;DHT22;12359;49.716;9.212;2023-05-10T14:35:11;19.70;1.00
24224;DHT22;12359;49.716;9.212;2023-05-10T14:37:38;19.70;1.00
24224;DHT22;12359;49.716;9.212;2023-05-10T14:40:05;19.80;99.90
24224;DHT22;12359;49.716;9.212;2023-05-10T14:42:31;19.80;99.90
24224;DHT22;12359;49.716;9.212;2023-05-10T14:44:57;19.80;94.70
24224;DHT22;12359;49.716;9.212;2023-05-10T14:47:23;19.70;1.00
24224;DHT22;12359;49.716;9.212;2023-05-10T14:49:49;19.60;99.90
24224;DHT22;12359;49.716;9.212;2023-05-10T14:52:14;19.50;99.90
24224;DHT22;12359;49.716;9.212;2023-05-10T14:54:40;19.50;99.90
24224;DHT22;12359;49.716;9.212;2023-05-10T14:57:06;19.40;99.90
24224;DHT22;12359;49.716;9.212;2023-05-10T14:59:32;19.30;1.00
24224;DHT22;12359;49.716;9.212;2023-05-10T15:01:59;19.20;99.90
24224;DHT22;12359;49.716;9.212;2023-05-10T15:04:25;19.10;99.90
24224;DHT22;12359;49.716;9.212;2023-05-10T15:06:50;19.10;99.90
24224;DHT22;12359;49.716;9.212;2023-05-10T15:09:16;19.00;99.90
24224;DHT22;12359;49.716;9.212;2023-05-10T15:11:42;18.90;99.90
24224;DHT22;12359;49.716;9.212;2023-05-10T15:14:08;18.90;1.00
24224;DHT22;12359;49.716;9.212;2023-05-10T15:16:34;18.80;1.00
24224;DHT22;12359;49.716;9.212;2023-05-10T15:19:00;18.80;1.00
24224;DHT22;12359;49.716;9.212;2023-05-10T15:21:25;18.70;1.00
24224;DHT22;12359;49.716;9.212;2023-05-10T15:23:51;18.80;42.70
24224;DHT22;12359;49.716;9.212;2023-05-10T15:26:17;18.80;8.80
24224;DHT22;12359;49.716;9.212;2023-05-10T15:28:42;18.70;1.00
24224;DHT22;12359;49.716;9.212;2023-05-10T15:31:08;18.70;30.10
24224;DHT22;12359;49.716;9.212;2023-05-10T15:33:36;18.80;1.00
24224;DHT22;12359;49.716;9.212;2023-05-10T15:36:02;18.90;99.90
24224;DHT22;12359;49.716;9.212;2023-05-10T15:38:29;18.80;1.00
24224;DHT22;12359;49.716;9.212;2023-05-10T15:40:58;18.70;99.90
24224;DHT22;12359;49.716;9.212;2023-05-10T15:43:23;18.60;1.00
24224;DHT22;12359;49.716;9.212;2023-05-10T15:45:49;18.70;29.40
24224;DHT22;12359;49.716;9.212;2023-05-10T15:48:15;18.70;99.90
24224;DHT22;12359;49.716;9.212;2023-05-10T15:50:41;18.80;99.90
24224;DHT22;12359;49.716;9.212;2023-05-10T15:53:07;18.90;99.90
24224;DHT22;12359;49.716;9.212;2023-05-10T15:55:33;18.90;99.90
24224;DHT22;12359;49.716;9.212;2023-05-10T15:57:59;18.90;99.90
24224;DHT22;12359;49.716;9.212;2023-05-10T16:00:25;19.00;18.60
24224;DHT22;12359;49.716;9.212;2023-05-10T16:02:51;19.10;71.80
24224;DHT22;12359;49.716;9.212;2023-05-10T16:05:18;19.10;99.90
24224;DHT22;12359;49.716;9.212;2023-05-10T16:07:44;19.20;40.40
24224;DHT22;12359;49.716;9.212;2023-05-10T16:10:10;19.20;1.00